Time;durP1;ratioP1;P1;durP2;ratioP2;P2;SDS_P1;SDS_P2;PMS_P1;PMS_P2;Temp;Humidity;BMP_temperature;BMP_pressure;BME280_temperature;BME280_humidity;BME280_pressure;Samples;Min_cycle;Max_cycle;Signal;HPM_P1;HPM_P2
2023/07/16 00:00:27;;;;;;;9.20;7.70;;;22.70;99.90;;;;;;6249723;22;20541;-82
2023/07/16 00:02:53;;;;;;;8.97;7.30;;;22.70;99.90;;;;;;6248045;23;20190;-82
2023/07/16 00:05:21;;;;;;;8.70;7.40;;;22.70;99.90;;;;;;6249590;22;20165;-81
2023/07/16 00:07:48;;;;;;;8.30;7.20;;;22.70;99.90;;;;;;6249483;22;20476;-81
2023/07/16 00:10:15;;;;;;;10.77;7.43;;;22.70;99.90;;;;;;6250063;22;20186;-79
2023/07/16 00:12:42;;;;;;;10.07;7.33;;;22.60;99.90;;;;;;6250214;22;20192;-83
2023/07/16 00:15:10;;;;;;;10.88;7.22;;;22.60;99.90;;;;;;6249018;23;20257;-84
2023/07/16 00:17:37;;;;;;;13.67;8.20;;;22.50;99.90;;;;;;6224283;23;20218;-83
2023/07/16 00:20:05;;;;;;;11.73;7.67;;;22.50;99.90;;;;;;6275158;22;20170;-82
2023/07/16 00:22:57;;;;;;;9.83;7.70;;;22.50;99.90;;;;;;6268229;22;20209;-73
2023/07/16 00:25:24;;;;;;;9.73;7.43;;;22.50;99.90;;;;;;6272963;22;20158;-74
2023/07/16 00:27:51;;;;;;;9.07;7.80;;;22.50;99.90;;;;;;6247374;23;20190;-73
2023/07/16 00:30:18;;;;;;;9.37;7.57;;;22.30;99.90;;;;;;6249220;22;20158;-74
2023/07/16 00:32:45;;;;;;;10.33;8.17;;;22.30;99.90;;;;;;6247418;23;20444;-74
2023/07/16 00:35:13;;;;;;;9.37;7.60;;;22.20;99.90;;;;;;6246575;23;20221;-83
2023/07/16 00:37:42;;;;;;;8.73;7.47;;;22.20;99.90;;;;;;6273562;22;20244;-83
2023/07/16 00:40:12;;;;;;;10.57;7.63;;;22.20;99.90;;;;;;6223365;23;20559;-83
2023/07/16 00:42:50;;;;;;;9.00;7.43;;;22.10;99.90;;;;;;6248497;23;20202;-83
2023/07/16 00:45:31;;;;;;;14.80;8.50;;;22.10;99.90;;;;;;6249152;23;20185;-83
2023/07/16 00:48:00;;;;;;;9.53;7.60;;;22.10;99.90;;;;;;6272829;22;20265;-78
2023/07/16 00:50:28;;;;;;;9.97;7.83;;;22.20;99.90;;;;;;6273096;22;20208;-78
2023/07/16 00:52:55;;;;;;;8.77;7.60;;;22.10;99.90;;;;;;6249188;22;20415;-77
2023/07/16 00:55:23;;;;;;;10.60;7.50;;;22.10;99.90;;;;;;6272609;22;20486;-77
2023/07/16 00:57:50;;;;;;;11.97;8.00;;;22.00;99.90;;;;;;6248770;22;20646;-77
2023/07/16 01:00:16;;;;;;;10.03;7.13;;;22.00;99.90;;;;;;6248741;22;20162;-78
2023/07/16 01:02:43;;;;;;;8.53;7.63;;;22.00;99.90;;;;;;6247703;23;20240;-78
2023/07/16 01:05:10;;;;;;;10.30;7.97;;;22.00;99.90;;;;;;6247624;23;20313;-78
2023/07/16 01:07:46;;;;;;;9.73;7.60;;;21.90;99.90;;;;;;6247602;23;20196;-77
2023/07/16 01:27:25;;;;;;;;;;;;;;;;;;;;;
2023/07/16 01:30:38;;;;;;;10.63;8.10;;;21.70;99.90;;;;;;6278964;22;20169;-83
2023/07/16 01:33:43;;;;;;;;;;;;;;;;;;;;;
2023/07/16 01:37:32;;;;;;;9.80;8.00;;;21.70;99.90;;;;;;6125785;23;20204;-82
2023/07/16 01:40:47;;;;;;;;;;;;;;;;;;;;;
2023/07/16 01:44:33;;;;;;;11.47;8.00;;;21.40;99.90;;;;;;5984059;24;20197;-82
2023/07/16 02:00:14;;;;;;;10.50;8.23;;;21.30;99.90;;;;;;5872812;24;20171;-84
2023/07/16 02:37:09;;;;;;;11.03;8.87;;;20.70;99.90;;;;;;6187991;23;21412;-83
2023/07/16 02:49:12;;;;;;;12.40;9.13;;;20.50;99.90;;;;;;6221764;22;20210;-83
2023/07/16 02:52:47;;;;;;;10.53;8.70;;;20.40;99.90;;;;;;6156199;23;20231;-83
2023/07/16 02:55:45;;;;;;;10.20;8.57;;;20.40;99.90;;;;;;6135328;23;20191;-82
2023/07/16 02:58:41;;;;;;;11.97;9.20;;;20.40;99.90;;;;;;6021875;23;20177;-83
2023/07/16 03:01:32;;;;;;;11.37;9.10;;;20.30;99.90;;;;;;6022076;23;20195;-83
2023/07/16 03:04:59;;;;;;;11.80;9.60;;;20.40;99.90;;;;;;6040046;23;20278;-83
2023/07/16 03:12:22;;;;;;;12.60;9.80;;;20.40;99.90;;;;;;6225673;22;20210;-84
2023/07/16 03:15:21;;;;;;;10.83;9.70;;;20.20;99.90;;;;;;6228034;23;20249;-83
2023/07/16 03:18:10;;;;;;;13.17;9.20;;;20.30;99.90;;;;;;6248858;23;20189;-82
2023/07/16 03:21:13;;;;;;;11.30;9.43;;;20.40;99.90;;;;;;6249184;23;20181;-82
2023/07/16 03:24:20;;;;;;;;;;;;;;;;;;;;;
2023/07/16 03:27:04;;;;;;;13.03;9.30;;;20.30;99.90;;;;;;6219470;23;20220;-82
2023/07/16 03:30:09;;;;;;;12.80;9.70;;;20.40;99.90;;;;;;6157288;23;20207;-82
2023/07/16 03:33:03;;;;;;;12.03;9.00;;;20.40;99.90;;;;;;6111260;23;20231;-82
2023/07/16 03:36:10;;;;;;;12.53;9.40;;;20.50;99.90;;;;;;6185904;23;20542;-82
2023/07/16 03:39:06;;;;;;;10.80;9.40;;;20.50;99.90;;;;;;6138159;23;20182;-82
2023/07/16 03:42:15;;;;;;;10.77;9.50;;;20.60;99.90;;;;;;6137083;23;20211;-82
2023/07/16 03:45:01;;;;;;;11.67;9.80;;;20.70;99.90;;;;;;6138646;23;20189;-83
2023/07/16 03:47:35;;;;;;;11.93;9.27;;;20.60;99.90;;;;;;6164131;23;20179;-84
2023/07/16 03:50:34;;;;;;;11.50;9.43;;;20.70;99.90;;;;;;6140154;23;20295;-82
2023/07/16 03:57:46;;;;;;;11.57;9.30;;;20.80;99.90;;;;;;5956079;24;20193;-83
2023/07/16 04:00:40;;;;;;;13.33;10.30;;;20.80;99.90;;;;;;5912139;24;20203;-82
2023/07/16 04:03:36;;;;;;;11.80;9.50;;;20.90;99.90;;;;;;5956048;24;20240;-83
2023/07/16 04:06:45;;;;;;;12.27;9.70;;;20.90;99.90;;;;;;5952240;24;20216;-83
2023/07/16 04:10:07;;;;;;;12.40;9.30;;;21.10;99.90;;;;;;5951183;24;20176;-82
2023/07/16 04:18:15;;;;;;;;;;;;;;;;;;;;;
2023/07/16 04:22:15;;;;;;;13.90;10.10;;;21.40;99.90;;;;;;5874022;24;20187;-81
2023/07/16 04:25:58;;;;;;;;;;;;;;;;;;;;;
2023/07/16 04:29:36;;;;;;;15.90;10.93;;;21.50;99.90;;;;;;5740624;24;20166;-82
2023/07/16 04:35:28;;;;;;;15.13;10.40;;;21.70;99.90;;;;;;6145749;23;20207;-81
2023/07/16 04:38:41;;;;;;;13.03;10.20;;;21.70;99.90;;;;;;6104095;23;20203;-83
2023/07/16 04:41:41;;;;;;;12.63;10.03;;;21.70;99.90;;;;;;6144797;23;20593;-82
2023/07/16 04:44:37;;;;;;;12.37;10.13;;;21.80;99.90;;;;;;6058947;23;20191;-82
2023/07/16 04:47:11;;;;;;;13.47;10.50;;;21.90;99.90;;;;;;6016603;23;20282;-82
2023/07/16 04:49:40;;;;;;;15.40;10.80;;;22.00;99.90;;;;;;6040736;23;20203;-83
2023/07/16 04:52:14;;;;;;;12.83;10.37;;;21.90;99.90;;;;;;6017312;23;20274;-83
2023/07/16 04:54:46;;;;;;;13.53;10.27;;;22.00;99.90;;;;;;6039908;23;20574;-83
2023/07/16 04:57:16;;;;;;;16.50;10.53;;;22.10;99.90;;;;;;5960404;24;20659;-84
2023/07/16 04:59:58;;;;;;;12.25;10.45;;;22.20;99.90;;;;;;5962016;24;20573;-81
2023/07/16 05:02:43;;;;;;;14.13;10.40;;;22.30;99.90;;;;;;5962632;24;20199;-82
2023/07/16 05:05:36;;;;;;;12.53;10.20;;;22.30;99.90;;;;;;5879670;24;20594;-83
2023/07/16 05:08:21;;;;;;;;;;;;;;;;;;;;;
2023/07/16 05:11:02;;;;;;;14.37;10.67;;;22.50;99.90;;;;;;5888834;24;20179;-82
2023/07/16 05:14:07;;;;;;;11.63;10.23;;;22.50;99.90;;;;;;5854330;24;20254;-82
2023/07/16 05:17:05;;;;;;;17.73;10.83;;;22.70;99.90;;;;;;5852835;24;20195;-82
2023/07/16 05:19:45;;;;;;;15.63;10.85;;;22.80;99.90;;;;;;5831646;24;20290;-82
2023/07/16 05:22:20;;;;;;;13.82;10.30;;;22.90;99.90;;;;;;5964207;23;20594;-81
2023/07/16 05:25:01;;;;;;;14.00;10.07;;;23.10;99.90;;;;;;6013397;23;20283;-85
2023/07/16 05:36:46;;;;;;;;;;;;;;;;;;;;;
2023/07/16 06:13:16;;;;;;;13.27;10.98;;;24.50;99.90;;;;;;6097081;23;20354;-83
2023/07/16 07:02:17;;;;;;;15.27;9.48;;;26.40;99.90;;;;;;6263202;22;20212;-83
2023/07/16 07:36:38;;;;;;;12.70;8.65;;;27.80;99.90;;;;;;6100796;23;20188;-84
2023/07/16 08:54:28;;;;;;;6.22;5.40;;;34.20;94.60;;;;;;6211506;22;20280;-81
2023/07/16 09:57:10;;;;;;;6.05;5.45;;;35.00;82.70;;;;;;6247671;22;20268;-81
2023/07/16 10:37:54;;;;;;;6.20;5.60;;;36.50;74.20;;;;;;6208260;22;20300;-76
2023/07/16 10:40:31;;;;;;;8.65;5.95;;;36.70;73.90;;;;;;6189140;22;21201;-75
2023/07/16 12:28:04;;;;;;;7.68;6.57;;;37.90;77.20;;;;;;6220384;22;20205;-81
2023/07/16 12:31:13;;;;;;;10.02;6.50;;;38.10;74.40;;;;;;6223732;22;20422;-80
2023/07/16 12:56:14;;;;;;;6.57;4.90;;;38.90;68.30;;;;;;6190210;23;20228;-87
2023/07/16 12:58:42;;;;;;;8.57;5.28;;;39.20;66.60;;;;;;6163657;23;20214;-84
2023/07/16 13:01:09;;;;;;;6.22;5.45;;;39.30;66.20;;;;;;6188429;23;20194;-84
2023/07/16 13:03:36;;;;;;;8.38;5.13;;;39.60;65.90;;;;;;6164001;23;20229;-84
2023/07/16 13:06:04;;;;;;;7.95;5.20;;;39.90;63.70;;;;;;6187737;23;20183;-86
2023/07/16 13:08:31;;;;;;;7.13;5.30;;;39.60;64.10;;;;;;6163381;23;20558;-83
2023/07/16 13:10:58;;;;;;;6.07;4.93;;;38.80;64.20;;;;;;6163558;23;20167;-86
2023/07/16 13:13:25;;;;;;;5.80;5.20;;;39.00;64.50;;;;;;6163236;23;20167;-84
2023/07/16 13:16:01;;;;;;;6.70;4.90;;;39.20;62.30;;;;;;6188244;23;20226;-87
2023/07/16 13:21:38;;;;;;;5.32;4.82;;;39.70;62.00;;;;;;6235835;22;20205;-85
2023/07/16 13:31:00;;;;;;;5.50;4.25;;;39.40;61.60;;;;;;6250918;22;20208;-84
2023/07/16 13:36:51;;;;;;;10.05;4.20;;;40.40;60.90;;;;;;6283256;22;20595;-84
2023/07/16 13:40:23;;;;;;;4.68;4.18;;;40.90;59.30;;;;;;6246607;23;20167;-83
2023/07/16 13:43:32;;;;;;;6.35;3.90;;;40.90;57.80;;;;;;6221865;23;20256;-84
2023/07/16 13:46:21;;;;;;;5.20;3.45;;;40.90;59.40;;;;;;5964004;24;20208;-81
2023/07/16 13:48:48;;;;;;;5.40;3.80;;;40.40;57.90;;;;;;5984493;24;20530;-81
2023/07/16 13:51:22;;;;;;;4.85;3.80;;;40.20;58.10;;;;;;5983753;24;20270;-83
2023/07/16 13:53:57;;;;;;;4.57;3.53;;;40.30;59.90;;;;;;5985158;24;20407;-80
2023/07/16 13:56:24;;;;;;;4.05;3.65;;;39.80;58.00;;;;;;5984672;24;20587;-80
2023/07/16 13:58:53;;;;;;;12.27;4.40;;;39.30;60.90;;;;;;5984951;24;20187;-80
2023/07/16 14:01:22;;;;;;;4.20;3.70;;;39.80;60.40;;;;;;5985184;24;20208;-82
2023/07/16 14:03:52;;;;;;;4.38;3.90;;;40.20;61.50;;;;;;5961797;24;20172;-82
2023/07/16 14:06:20;;;;;;;9.75;3.78;;;40.10;59.80;;;;;;5961151;24;20196;-80
2023/07/16 14:08:47;;;;;;;6.90;3.60;;;39.90;59.30;;;;;;5961358;24;20600;-79
2023/07/16 14:11:15;;;;;;;4.88;3.55;;;39.90;59.10;;;;;;5984969;23;20195;-81
2023/07/16 14:13:42;;;;;;;4.05;3.70;;;40.00;58.70;;;;;;5989123;23;20181;-80
2023/07/16 14:16:09;;;;;;;4.28;3.88;;;39.20;58.00;;;;;;5997177;23;20443;-86
2023/07/16 14:18:36;;;;;;;4.00;3.60;;;38.50;58.90;;;;;;6132832;23;20215;-78
2023/07/16 14:21:04;;;;;;;3.83;3.40;;;37.70;61.10;;;;;;6132798;23;20614;-79
2023/07/16 14:23:31;;;;;;;5.90;3.75;;;36.90;62.50;;;;;;6275428;22;20476;-78
2023/07/16 14:25:58;;;;;;;4.40;3.97;;;36.90;63.40;;;;;;6259191;22;20244;-79
2023/07/16 14:28:25;;;;;;;4.40;4.00;;;36.50;64.90;;;;;;6284588;22;20161;-80
2023/07/16 14:30:52;;;;;;;7.65;4.22;;;35.80;64.90;;;;;;6259417;22;20175;-79
2023/07/16 14:33:19;;;;;;;9.75;4.30;;;35.60;65.80;;;;;;6284162;22;20255;-79
2023/07/16 14:35:46;;;;;;;7.70;4.32;;;35.10;66.80;;;;;;6311527;22;20180;-78
2023/07/16 14:38:13;;;;;;;6.20;4.20;;;34.70;67.20;;;;;;6284832;22;20472;-78
2023/07/16 14:40:42;;;;;;;5.28;4.13;;;34.10;68.50;;;;;;6284432;22;20195;-80
2023/07/16 14:43:09;;;;;;;5.40;4.30;;;34.20;70.10;;;;;;6310064;22;20181;-78
2023/07/16 14:45:36;;;;;;;7.15;4.22;;;34.10;69.90;;;;;;6311842;22;20185;-77
2023/07/16 14:48:04;;;;;;;5.40;4.38;;;33.60;70.00;;;;;;6284342;22;20590;-77
2023/07/16 14:50:31;;;;;;;7.15;4.22;;;33.50;71.10;;;;;;6259285;22;20165;-77
2023/07/16 14:52:58;;;;;;;4.97;4.07;;;33.60;71.10;;;;;;6284236;22;20185;-77
2023/07/16 14:55:25;;;;;;;4.32;3.92;;;33.50;71.90;;;;;;6259295;22;20173;-77
2023/07/16 14:57:52;;;;;;;4.53;3.78;;;33.60;72.10;;;;;;6309138;22;20507;-78
2023/07/16 15:00:19;;;;;;;5.75;3.97;;;33.30;70.90;;;;;;6284660;22;20490;-78
2023/07/16 15:02:47;;;;;;;3.95;3.60;;;33.10;72.40;;;;;;6259115;22;20193;-78
2023/07/16 15:05:14;;;;;;;4.75;3.97;;;33.20;72.80;;;;;;6284261;22;20193;-78
2023/07/16 15:07:42;;;;;;;3.90;3.50;;;33.20;72.70;;;;;;6284429;22;20227;-78
2023/07/16 15:10:10;;;;;;;3.95;3.47;;;33.40;73.10;;;;;;6284083;22;20161;-77
2023/07/16 15:12:37;;;;;;;4.18;3.47;;;33.20;72.70;;;;;;6283977;22;20177;-78
2023/07/16 15:15:05;;;;;;;6.03;3.45;;;33.10;73.30;;;;;;6284330;22;20252;-77
2023/07/16 15:17:32;;;;;;;7.55;3.67;;;32.90;73.40;;;;;;6284468;22;20185;-77
2023/07/16 15:19:59;;;;;;;5.47;3.10;;;32.70;73.30;;;;;;6284319;22;20169;-78
2023/07/16 15:22:26;;;;;;;4.57;3.00;;;32.50;73.70;;;;;;6311262;22;20455;-79
2023/07/16 15:24:53;;;;;;;4.15;3.05;;;32.20;74.40;;;;;;6284284;22;20165;-80
2023/07/16 15:27:20;;;;;;;3.80;2.75;;;32.00;74.40;;;;;;6298911;22;20181;-80
2023/07/16 15:29:48;;;;;;;4.03;2.45;;;32.10;74.90;;;;;;6311015;22;20161;-79
2023/07/16 15:32:15;;;;;;;4.85;3.38;;;32.30;74.30;;;;;;6283980;22;20189;-80
2023/07/16 15:34:42;;;;;;;3.78;2.95;;;32.10;73.60;;;;;;6309803;22;20200;-81
2023/07/16 15:37:09;;;;;;;3.42;2.85;;;31.80;74.20;;;;;;6310096;22;20579;-79
2023/07/16 15:39:38;;;;;;;5.43;2.95;;;31.70;75.40;;;;;;6309138;22;20165;-79
2023/07/16 15:42:05;;;;;;;6.00;2.88;;;31.50;76.00;;;;;;6284223;22;20496;-79
2023/07/16 15:44:32;;;;;;;3.33;2.63;;;31.40;76.90;;;;;;6284188;22;20168;-78
2023/07/16 15:46:59;;;;;;;4.32;2.80;;;31.40;76.60;;;;;;6293940;22;20243;-79
2023/07/16 15:49:27;;;;;;;4.63;3.33;;;31.40;77.70;;;;;;6306213;22;20162;-79
2023/07/16 15:51:54;;;;;;;4.63;2.97;;;31.40;77.00;;;;;;6284111;22;20234;-80
2023/07/16 15:54:21;;;;;;;6.15;3.15;;;31.20;77.40;;;;;;6309576;22;20599;-79
2023/07/16 15:56:48;;;;;;;5.15;3.03;;;31.10;77.60;;;;;;6284176;22;20509;-79
2023/07/16 15:59:15;;;;;;;3.13;2.83;;;31.10;78.80;;;;;;6311320;22;20167;-79
2023/07/16 16:01:42;;;;;;;3.08;2.67;;;30.90;77.80;;;;;;6283515;22;20193;-80
2023/07/16 16:04:09;;;;;;;5.53;2.90;;;30.90;78.60;;;;;;6283457;22;20738;-79
2023/07/16 16:06:36;;;;;;;3.88;2.78;;;30.90;78.30;;;;;;6310507;22;20195;-79
2023/07/16 16:09:06;;;;;;;3.38;2.80;;;30.80;78.60;;;;;;6310654;22;20173;-79
2023/07/16 16:11:33;;;;;;;3.35;2.67;;;30.80;78.60;;;;;;6258501;22;20279;-79
2023/07/16 16:14:00;;;;;;;4.75;2.70;;;30.80;78.80;;;;;;6283978;22;20255;-81
2023/07/16 16:16:27;;;;;;;4.70;3.10;;;31.00;78.90;;;;;;6310605;22;20259;-79
2023/07/16 16:18:54;;;;;;;4.93;2.78;;;31.00;78.60;;;;;;6310635;22;20427;-80
2023/07/16 16:21:21;;;;;;;3.95;2.85;;;31.10;78.60;;;;;;6310523;22;20367;-79
2023/07/16 16:23:48;;;;;;;4.38;3.25;;;31.30;78.20;;;;;;6283369;22;20211;-79
2023/07/16 16:26:15;;;;;;;2.85;2.55;;;31.20;78.90;;;;;;6283359;22;20242;-79
2023/07/16 16:28:42;;;;;;;5.13;2.90;;;31.30;79.00;;;;;;6310701;22;20161;-80
2023/07/16 16:31:09;;;;;;;3.47;2.55;;;31.40;78.10;;;;;;6310347;22;20184;-79
2023/07/16 16:33:36;;;;;;;4.78;2.90;;;31.40;78.10;;;;;;6283314;22;20210;-79
2023/07/16 16:36:09;;;;;;;4.20;2.75;;;31.30;77.80;;;;;;6257640;22;20201;-80
2023/07/16 16:38:37;;;;;;;3.92;2.80;;;31.20;78.20;;;;;;6308947;22;20164;-80
2023/07/16 16:41:07;;;;;;;7.28;2.92;;;31.30;79.00;;;;;;6310349;22;20169;-80
2023/07/16 16:43:35;;;;;;;3.30;2.83;;;31.00;78.60;;;;;;6283665;22;20161;-80
2023/07/16 16:46:02;;;;;;;4.05;2.55;;;31.00;78.90;;;;;;6283100;22;20191;-80
2023/07/16 16:48:31;;;;;;;4.93;2.83;;;30.80;79.50;;;;;;6309200;22;20600;-80
2023/07/16 16:50:58;;;;;;;4.47;2.55;;;31.00;79.90;;;;;;6284135;22;20161;-81
2023/07/16 16:53:25;;;;;;;3.30;2.70;;;31.10;79.90;;;;;;6283827;22;20172;-81
2023/07/16 16:55:52;;;;;;;4.32;3.10;;;31.10;79.90;;;;;;6283912;22;20169;-81
2023/07/16 16:58:20;;;;;;;3.95;2.90;;;30.80;79.80;;;;;;6260244;22;20165;-80
2023/07/16 17:00:51;;;;;;;2.80;2.55;;;30.60;79.80;;;;;;6312687;22;20214;-80
2023/07/16 17:03:18;;;;;;;3.35;2.85;;;30.60;80.90;;;;;;6311463;22;20210;-80
2023/07/16 17:05:49;;;;;;;4.65;2.83;;;30.40;80.30;;;;;;6312378;22;20183;-80
2023/07/16 17:08:17;;;;;;;3.65;2.63;;;30.50;81.40;;;;;;6312281;22;20153;-80
2023/07/16 17:10:44;;;;;;;3.70;3.00;;;30.30;81.10;;;;;;6310927;22;20426;-80
2023/07/16 17:13:11;;;;;;;4.55;3.33;;;30.20;81.80;;;;;;6312805;22;20157;-81
2023/07/16 17:15:43;;;;;;;4.50;3.00;;;30.20;81.90;;;;;;6312305;22;20161;-80
2023/07/16 17:18:10;;;;;;;5.53;2.80;;;30.20;82.10;;;;;;6285388;22;20184;-80
2023/07/16 17:20:37;;;;;;;3.17;2.65;;;30.20;82.30;;;;;;6259544;22;20222;-80
2023/07/16 17:23:05;;;;;;;4.95;2.90;;;30.20;82.10;;;;;;6285320;22;20192;-80
2023/07/16 17:25:32;;;;;;;6.25;3.38;;;30.20;82.40;;;;;;6285307;22;20185;-81
2023/07/16 17:27:59;;;;;;;4.43;2.90;;;30.10;82.10;;;;;;6285331;22;20193;-80
2023/07/16 17:30:26;;;;;;;6.47;3.10;;;30.00;82.50;;;;;;6312145;22;20161;-80
2023/07/16 17:32:53;;;;;;;3.63;2.67;;;30.00;82.40;;;;;;6285257;22;20181;-80
2023/07/16 17:35:20;;;;;;;3.22;2.85;;;30.00;82.90;;;;;;6311468;22;20228;-80
2023/07/16 17:37:47;;;;;;;4.82;2.88;;;29.80;82.70;;;;;;6284624;22;20181;-80
2023/07/16 17:40:15;;;;;;;5.00;2.88;;;29.70;82.80;;;;;;6284387;22;20164;-81
2023/07/16 17:42:42;;;;;;;4.90;2.70;;;29.80;83.60;;;;;;6284748;22;20238;-80
2023/07/16 17:45:09;;;;;;;4.95;3.17;;;29.80;83.40;;;;;;6284411;22;20554;-80
2023/07/16 17:47:37;;;;;;;5.07;2.60;;;29.80;83.10;;;;;;6312009;22;20462;-80
2023/07/16 17:50:04;;;;;;;3.55;2.75;;;29.70;83.40;;;;;;6285237;22;20188;-80
2023/07/16 17:52:31;;;;;;;3.63;2.72;;;29.70;84.00;;;;;;6310719;22;20212;-81
2023/07/16 17:54:58;;;;;;;3.88;2.70;;;29.60;83.90;;;;;;6259602;22;20161;-81
2023/07/16 17:57:25;;;;;;;5.88;3.00;;;29.60;83.90;;;;;;6311865;22;20181;-80
2023/07/16 17:59:52;;;;;;;4.13;2.97;;;29.80;84.00;;;;;;6284761;22;20176;-79
2023/07/16 18:02:28;;;;;;;5.15;3.00;;;29.70;84.30;;;;;;6311753;22;20176;-80
2023/07/16 18:04:55;;;;;;;4.30;3.30;;;29.60;84.70;;;;;;6284487;22;20169;-79
2023/07/16 18:07:23;;;;;;;11.23;3.78;;;29.50;85.00;;;;;;6284200;22;20192;-79
2023/07/16 18:09:50;;;;;;;3.95;2.70;;;29.50;86.90;;;;;;6311787;22;20576;-79
2023/07/16 18:12:17;;;;;;;6.25;3.50;;;29.30;85.70;;;;;;6284571;22;20453;-80
2023/07/16 18:14:48;;;;;;;3.13;2.78;;;29.40;90.00;;;;;;6284644;22;20238;-79
2023/07/16 18:17:15;;;;;;;5.60;3.00;;;29.30;87.10;;;;;;6284511;22;20208;-81
2023/07/16 18:19:42;;;;;;;4.15;2.95;;;29.30;88.30;;;;;;6284552;22;20165;-80
2023/07/16 18:22:09;;;;;;;4.00;2.85;;;29.40;90.00;;;;;;6284188;22;20193;-80
2023/07/16 18:24:56;;;;;;;5.03;3.20;;;29.30;88.00;;;;;;6284930;22;20169;-80
2023/07/16 18:27:23;;;;;;;5.00;3.42;;;29.30;90.00;;;;;;6312170;22;20498;-81
2023/07/16 18:29:51;;;;;;;4.07;3.50;;;29.00;88.50;;;;;;6284807;22;20610;-79
2023/07/16 18:32:18;;;;;;;5.30;4.32;;;29.00;90.10;;;;;;6311622;22;20189;-79
2023/07/16 18:34:45;;;;;;;7.57;3.60;;;28.80;89.30;;;;;;6284798;22;20200;-80
2023/07/16 18:37:12;;;;;;;3.88;3.35;;;28.80;90.10;;;;;;6284474;22;20205;-81
2023/07/16 18:39:39;;;;;;;6.00;3.63;;;28.80;90.00;;;;;;6284614;22;20404;-79
2023/07/16 18:42:06;;;;;;;6.38;3.58;;;28.70;91.00;;;;;;6311265;22;20189;-78
2023/07/16 18:44:33;;;;;;;4.68;3.20;;;28.60;90.70;;;;;;6284196;22;20180;-78
2023/07/16 18:47:00;;;;;;;5.43;3.50;;;28.50;90.60;;;;;;6284144;22;20192;-77
2023/07/16 18:49:27;;;;;;;4.57;3.50;;;28.40;90.80;;;;;;6311253;22;20157;-78
2023/07/16 18:51:54;;;;;;;5.05;3.10;;;28.30;91.20;;;;;;6284082;22;20192;-78
2023/07/16 18:54:22;;;;;;;4.72;3.40;;;28.30;91.00;;;;;;6283869;22;20165;-77
2023/07/16 18:56:49;;;;;;;6.00;3.50;;;28.20;91.20;;;;;;6283996;22;20193;-79
2023/07/16 18:59:16;;;;;;;6.28;3.10;;;28.10;91.20;;;;;;6283883;22;20165;-78
2023/07/16 19:01:43;;;;;;;5.47;3.40;;;28.10;91.30;;;;;;6284157;22;20484;-77
2023/07/16 19:04:10;;;;;;;5.78;3.20;;;28.00;91.70;;;;;;6283985;22;20196;-77
2023/07/16 19:06:38;;;;;;;6.07;3.13;;;28.00;92.10;;;;;;6283784;22;20189;-78
2023/07/16 19:09:05;;;;;;;5.50;3.13;;;28.00;91.70;;;;;;6309779;22;20165;-79
2023/07/16 19:11:32;;;;;;;6.55;3.10;;;27.90;91.90;;;;;;6284158;22;20185;-80
2023/07/16 19:13:59;;;;;;;5.10;3.25;;;27.90;91.90;;;;;;6311067;22;20181;-80
2023/07/16 19:16:26;;;;;;;4.05;3.10;;;27.90;92.10;;;;;;6311001;22;20207;-78
2023/07/16 19:18:53;;;;;;;4.00;3.10;;;27.80;92.30;;;;;;6283626;22;20196;-77
2023/07/16 19:21:20;;;;;;;5.28;3.28;;;27.80;92.40;;;;;;6283430;22;20196;-76
2023/07/16 19:23:48;;;;;;;4.53;3.30;;;27.70;93.00;;;;;;6283271;22;20195;-75
2023/07/16 19:26:15;;;;;;;5.10;3.40;;;27.60;93.00;;;;;;6257132;22;20201;-78
2023/07/16 19:28:42;;;;;;;7.40;3.70;;;27.60;93.10;;;;;;6282859;22;20169;-77
2023/07/16 19:31:09;;;;;;;5.47;3.25;;;27.60;93.20;;;;;;6283293;22;20188;-80
2023/07/16 19:33:36;;;;;;;5.00;3.10;;;27.50;93.30;;;;;;6310534;22;20184;-77
2023/07/16 19:36:04;;;;;;;3.60;3.30;;;27.40;93.50;;;;;;6283136;22;20201;-79
2023/07/16 19:38:41;;;;;;;5.97;3.30;;;27.40;93.60;;;;;;6282332;22;20260;-79
2023/07/16 19:41:09;;;;;;;9.23;4.53;;;27.40;93.90;;;;;;6283681;22;20199;-80
2023/07/16 19:43:36;;;;;;;7.00;3.65;;;27.30;93.90;;;;;;6310756;22;20251;-76
2023/07/16 19:46:05;;;;;;;5.65;3.38;;;27.20;94.10;;;;;;6283486;22;20169;-77
2023/07/16 19:48:33;;;;;;;8.23;3.38;;;27.20;94.20;;;;;;6308844;22;20191;-77
2023/07/16 19:51:03;;;;;;;5.22;3.03;;;27.10;94.40;;;;;;6283500;22;20169;-77
2023/07/16 19:53:30;;;;;;;6.15;3.22;;;27.20;95.10;;;;;;6308638;22;20184;-78
2023/07/16 19:55:58;;;;;;;5.88;3.35;;;27.10;94.70;;;;;;6283637;22;20161;-77
2023/07/16 19:58:26;;;;;;;5.47;3.50;;;27.00;94.90;;;;;;6310573;22;20153;-77
2023/07/16 20:00:53;;;;;;;4.05;3.05;;;26.90;95.00;;;;;;6283770;22;20164;-76
2023/07/16 20:03:21;;;;;;;4.88;3.10;;;26.90;95.20;;;;;;6310575;22;20540;-75
2023/07/16 20:05:48;;;;;;;5.25;3.28;;;26.90;95.30;;;;;;6283671;22;20165;-75
2023/07/16 20:08:16;;;;;;;5.05;3.17;;;26.90;95.40;;;;;;6309182;22;20593;-75
2023/07/16 20:10:45;;;;;;;6.78;3.28;;;26.90;95.50;;;;;;6309601;22;20173;-76
2023/07/16 20:13:13;;;;;;;6.05;3.28;;;26.90;95.60;;;;;;6283363;22;20179;-77
2023/07/16 20:15:42;;;;;;;5.15;3.60;;;26.90;95.80;;;;;;6309529;22;20559;-77
2023/07/16 20:18:13;;;;;;;10.00;3.17;;;26.90;95.80;;;;;;6309002;22;20181;-78
2023/07/16 20:20:41;;;;;;;3.88;3.05;;;26.90;95.90;;;;;;6283736;22;20171;-78
2023/07/16 20:23:09;;;;;;;5.05;2.83;;;26.80;96.10;;;;;;6309089;22;20188;-77
2023/07/16 20:25:36;;;;;;;4.43;3.10;;;26.80;96.20;;;;;;6283631;22;20210;-79
2023/07/16 20:28:12;;;;;;;4.90;3.15;;;26.70;96.30;;;;;;6309270;22;20489;-76
2023/07/16 20:30:41;;;;;;;4.07;3.30;;;26.70;96.50;;;;;;6258259;22;20171;-76
2023/07/16 20:33:09;;;;;;;5.03;3.30;;;26.70;96.70;;;;;;6283014;22;20180;-76
2023/07/16 20:35:36;;;;;;;4.90;3.05;;;26.60;96.80;;;;;;6310350;22;20443;-76
2023/07/16 20:38:03;;;;;;;5.03;3.08;;;26.60;97.00;;;;;;6283378;22;20189;-77
2023/07/16 20:40:31;;;;;;;4.97;3.10;;;26.70;97.10;;;;;;6283487;22;20218;-75
2023/07/16 20:43:00;;;;;;;5.68;3.50;;;26.70;97.20;;;;;;6284114;22;20551;-75
2023/07/16 20:45:27;;;;;;;5.07;3.25;;;26.70;98.30;;;;;;6310197;22;20172;-75
2023/07/16 20:47:57;;;;;;;5.75;3.10;;;26.70;97.30;;;;;;6283094;22;20181;-75
2023/07/16 20:50:26;;;;;;;3.72;3.10;;;26.70;97.60;;;;;;6310133;22;20412;-75
2023/07/16 20:52:55;;;;;;;5.35;3.35;;;26.60;97.30;;;;;;6283192;22;20230;-75
2023/07/16 20:55:24;;;;;;;4.50;3.35;;;26.60;97.30;;;;;;6282763;22;20169;-75
2023/07/16 20:57:53;;;;;;;4.05;3.17;;;26.60;97.40;;;;;;6282729;22;20219;-74
2023/07/16 21:00:26;;;;;;;4.72;3.10;;;26.40;97.50;;;;;;6309041;22;20168;-75
2023/07/16 21:02:55;;;;;;;4.45;3.22;;;26.40;97.30;;;;;;6283246;22;20188;-74
2023/07/16 21:05:52;;;;;;;3.72;3.10;;;26.30;97.60;;;;;;6284145;22;20239;-89
2023/07/16 21:17:15;;;;;;;5.07;2.80;;;26.40;97.70;;;;;;6253181;22;20209;-88
2023/07/16 21:19:59;;;;;;;3.83;3.00;;;26.40;97.90;;;;;;6229836;22;20166;-87
2023/07/16 21:22:30;;;;;;;3.05;2.75;;;26.30;98.00;;;;;;6255440;22;20183;-86
2023/07/16 21:25:12;;;;;;;;;;;;;;;;;;;;;
2023/07/16 21:27:48;;;;;;;3.42;2.83;;;26.30;98.40;;;;;;6279192;22;20273;-81
2023/07/16 21:30:15;;;;;;;3.38;2.78;;;26.20;98.40;;;;;;6279429;22;20305;-81
2023/07/16 21:32:44;;;;;;;4.22;2.70;;;26.20;98.60;;;;;;6227293;22;20676;-81
2023/07/16 21:35:11;;;;;;;2.85;2.45;;;26.10;98.70;;;;;;6252520;22;20221;-81
2023/07/16 21:37:38;;;;;;;4.82;2.70;;;26.10;98.80;;;;;;6252248;22;20217;-81
2023/07/16 21:40:06;;;;;;;3.40;2.65;;;26.10;98.80;;;;;;6252765;22;20180;-81
2023/07/16 21:42:34;;;;;;;3.78;2.70;;;26.10;99.10;;;;;;6253287;22;20284;-81
2023/07/16 21:45:01;;;;;;;6.78;3.42;;;26.10;99.20;;;;;;6281254;22;20197;-81
2023/07/16 21:47:29;;;;;;;3.92;2.90;;;26.00;99.40;;;;;;6253845;22;20292;-79
2023/07/16 21:49:57;;;;;;;3.38;2.90;;;25.80;99.50;;;;;;6279670;22;20162;-80
2023/07/16 21:52:24;;;;;;;3.92;2.90;;;25.80;99.70;;;;;;6253831;22;20184;-81
2023/07/16 21:54:51;;;;;;;4.80;2.70;;;25.70;99.90;;;;;;6254538;22;20169;-81
2023/07/16 21:57:18;;;;;;;5.45;2.90;;;25.70;99.90;;;;;;6254768;22;20181;-82
2023/07/16 21:59:46;;;;;;;4.53;2.90;;;25.60;99.90;;;;;;6254462;22;20178;-82
2023/07/16 22:02:13;;;;;;;3.67;2.80;;;25.50;99.90;;;;;;6281119;22;20279;-80
2023/07/16 22:04:40;;;;;;;4.03;2.78;;;25.50;99.90;;;;;;6281106;22;20165;-81
2023/07/16 22:07:09;;;;;;;3.22;2.90;;;25.40;99.90;;;;;;6254468;22;20222;-81
2023/07/16 22:09:36;;;;;;;5.10;3.10;;;25.40;99.90;;;;;;6280961;22;20161;-81
2023/07/16 22:12:03;;;;;;;3.83;2.75;;;25.30;99.90;;;;;;6254303;22;20190;-81
2023/07/16 22:14:30;;;;;;;4.75;3.03;;;25.30;99.90;;;;;;6253888;22;20177;-80
2023/07/16 22:16:57;;;;;;;3.78;3.00;;;25.20;99.90;;;;;;6253584;22;20206;-81
2023/07/16 22:19:25;;;;;;;3.17;2.88;;;25.10;99.90;;;;;;6279308;22;20227;-79
2023/07/16 22:21:59;;;;;;;4.68;2.90;;;25.10;99.90;;;;;;6255586;22;20564;-79
2023/07/16 22:24:27;;;;;;;4.68;2.80;;;25.00;99.90;;;;;;6253600;22;20215;-79